createdAt,value
2023-02-09T06:50:29.769Z,85.13
2023-02-09T06:53:31.746Z,89.53
2023-02-09T06:56:33.374Z,87.95
2023-02-09T06:59:35.258Z,81.68
2023-02-09T07:02:36.940Z,87.15
2023-02-09T07:05:38.641Z,98.95
2023-02-09T07:08:41.206Z,84.97
2023-02-09T07:11:44.166Z,78.35
2023-02-09T07:14:47.310Z,82.65
2023-02-09T07:17:49.232Z,75.88
2023-02-09T07:20:59.030Z,76.18
2023-02-09T07:24:00.894Z,75.57
2023-02-09T07:27:07.003Z,86.95
2023-02-09T07:30:09.656Z,77.80
2023-02-09T07:33:11.314Z,78.40
2023-02-09T07:36:15.564Z,71.57
2023-02-09T07:39:18.394Z,75.70
2023-02-09T07:42:23.035Z,73.25
2023-02-09T07:48:27.491Z,66.95
2023-02-09T07:51:30.058Z,64.15
2023-02-09T07:54:32.492Z,63.20
2023-02-09T07:57:34.180Z,65.07
2023-02-09T08:00:35.872Z,64.28
2023-02-09T08:03:39.356Z,63.45
2023-02-09T08:06:46.256Z,62.90
2023-02-09T08:09:48.284Z,68.70
2023-02-09T08:13:02.982Z,61.08
2023-02-09T08:16:08.275Z,55.47
2023-02-09T08:19:14.301Z,52.42
2023-02-09T08:22:16.045Z,56.13
2023-02-09T08:25:20.945Z,60.05
2023-02-09T08:28:34.829Z,55.20
2023-02-09T08:31:40.794Z,49.55
2023-02-09T08:34:42.723Z,45.53
2023-02-09T08:37:44.618Z,42.88
2023-02-09T08:40:46.936Z,54.10
2023-02-09T08:43:49.743Z,50.17
2023-02-09T08:46:52.127Z,52.30
2023-02-09T08:49:53.954Z,58.80
2023-02-09T08:52:57.896Z,50.40
2023-02-09T08:56:00.021Z,54.25
2023-02-09T08:59:03.529Z,53.35
2023-02-09T09:02:05.285Z,49.47
2023-02-09T09:05:07.573Z,51.72
2023-02-09T09:08:12.004Z,55.75
2023-02-09T09:11:14.891Z,54.80
2023-02-09T09:14:16.714Z,50.13
2023-02-09T09:17:18.546Z,48.33
2023-02-09T09:20:20.368Z,50.63
2023-02-09T09:23:22.800Z,49.67
2023-02-09T09:26:24.497Z,53.03
2023-02-09T09:29:26.297Z,49.42
2023-02-09T09:32:28.279Z,40.17
2023-02-09T09:35:31.087Z,43.88
2023-02-09T09:38:35.069Z,40.28
2023-02-09T09:41:38.484Z,45.63
2023-02-09T09:44:47.090Z,39.45
2023-02-09T09:47:49.746Z,39.80
2023-02-09T09:50:56.918Z,47.33
2023-02-09T09:54:01.423Z,41.42
2023-02-09T09:57:03.825Z,40.85
2023-02-09T10:00:19.728Z,34.30
2023-02-09T10:03:22.902Z,37.38
2023-02-09T10:06:24.642Z,36.55
2023-02-09T10:09:42.356Z,37.72
2023-02-09T10:12:48.858Z,38.63
2023-02-09T10:15:56.586Z,36.92
2023-02-09T10:19:03.766Z,37.25
2023-02-09T10:22:10.687Z,32.22
2023-02-09T10:25:40.784Z,37.90
2023-02-09T10:28:50.134Z,34.42
2023-02-09T10:32:26.723Z,40.40
2023-02-09T10:35:43.133Z,36.22
2023-02-09T10:38:44.993Z,40.03
2023-02-09T10:41:50.182Z,38.58
2023-02-09T10:48:01.129Z,41.50
2023-02-09T10:51:08.700Z,44.50
2023-02-09T10:54:21.272Z,57.75
2023-02-09T10:57:30.936Z,39.42
2023-02-09T11:00:42.382Z,40.03
2023-02-09T11:03:59.258Z,46.50
2023-02-09T11:07:06.065Z,42.60
2023-02-09T11:10:13.142Z,44.08
2023-02-09T11:13:20.115Z,41.38
2023-02-09T11:16:40.628Z,46.42
2023-02-09T11:20:18.919Z,49.10
2023-02-09T11:23:43.033Z,46.60
2023-02-09T11:26:44.652Z,43.92
2023-02-09T11:30:11.907Z,42.17
2023-02-09T11:33:22.070Z,40.90
2023-02-09T11:36:52.558Z,42.70
2023-02-09T11:39:57.065Z,54.22
2023-02-09T11:43:11.068Z,42.20
2023-02-09T11:46:18.642Z,48.03
2023-02-09T11:49:23.540Z,41.97
2023-02-09T11:52:33.691Z,50.42
2023-02-09T11:55:41.847Z,40.70
2023-02-09T11:58:47.697Z,39.35
2023-02-09T12:02:09.155Z,48.63
2023-02-09T12:05:17.341Z,51.95
2023-02-09T12:08:38.502Z,50.78
2023-02-09T12:11:52.966Z,48.08
2023-02-09T12:15:15.241Z,46.05
2023-02-09T12:18:21.063Z,48.30
2023-02-09T12:21:38.235Z,45.65
2023-02-09T12:24:40.840Z,49.28
2023-02-09T12:28:03.587Z,61.30
2023-02-09T12:31:09.483Z,52.25
2023-02-09T12:38:07.411Z,50.33
2023-02-09T12:41:12.776Z,45.42
2023-02-09T12:44:18.342Z,49.17
2023-02-09T12:47:43.783Z,47.03
2023-02-09T12:50:49.444Z,49.83
2023-02-09T12:53:53.517Z,52.70
2023-02-09T12:56:56.565Z,52.35
2023-02-09T12:59:59.853Z,53.95
2023-02-09T13:03:11.704Z,55.92
2023-02-09T13:06:24.191Z,52.15
2023-02-09T13:09:33.016Z,46.92
2023-02-09T13:12:43.082Z,44.40
2023-02-09T13:16:03.378Z,43.33
2023-02-09T13:19:47.068Z,41.65
2023-02-09T13:22:55.545Z,49.55
2023-02-09T13:26:19.642Z,41.75
2023-02-09T13:29:26.543Z,40.22
2023-02-09T13:32:54.238Z,40.90
2023-02-09T13:36:29.556Z,38.17
2023-02-09T13:39:37.198Z,43.30
2023-02-09T13:42:51.988Z,37.45
2023-02-09T13:45:56.037Z,35.25
2023-02-09T13:49:11.375Z,30.25
2023-02-09T13:52:16.273Z,28.33
2023-02-09T13:55:24.144Z,32.95
2023-02-09T13:58:27.523Z,42.97
2023-02-09T14:01:35.648Z,41.10
2023-02-09T14:04:37.674Z,43.80
2023-02-09T14:07:45.347Z,41.33
2023-02-09T14:11:10.924Z,42.67
2023-02-09T14:15:04.389Z,46.10
2023-02-09T14:18:33.524Z,50.00
2023-02-09T14:21:49.828Z,44.17
2023-02-09T14:24:58.872Z,49.20
2023-02-09T14:28:07.881Z,47.50
2023-02-09T14:31:22.356Z,51.47
2023-02-09T14:34:31.896Z,51.65
2023-02-09T14:37:37.022Z,44.60
2023-02-09T14:43:40.320Z,45.20
2023-02-09T14:46:59.684Z,42.83
2023-02-09T14:50:02.343Z,42.53
2023-02-09T14:53:07.907Z,39.53
2023-02-09T14:56:23.668Z,37.88
2023-02-09T14:59:25.327Z,36.95
2023-02-09T15:02:28.150Z,38.78
2023-02-09T15:05:30.038Z,38.00
2023-02-09T15:08:35.149Z,42.42
2023-02-09T15:14:59.816Z,44.72
2023-02-09T15:18:01.478Z,43.08
2023-02-09T15:21:03.253Z,46.97
2023-02-09T15:24:05.253Z,43.53
2023-02-09T15:27:14.815Z,45.00
2023-02-09T15:30:20.461Z,44.78
2023-02-09T15:33:22.091Z,46.58
2023-02-09T15:36:25.057Z,47.97
2023-02-09T15:39:30.253Z,46.25
2023-02-09T15:42:50.622Z,118.53
2023-02-09T15:45:58.366Z,54.10
2023-02-09T15:49:00.417Z,53.72
2023-02-09T15:52:02.280Z,46.13
2023-02-09T15:55:04.529Z,61.85
2023-02-09T15:58:13.924Z,45.42
2023-02-09T16:01:17.219Z,51.92
2023-02-09T16:04:19.254Z,50.78
2023-02-09T16:07:25.763Z,52.75
2023-02-09T16:10:29.796Z,48.95
2023-02-09T16:13:31.502Z,46.60
2023-02-09T16:16:33.765Z,57.53
2023-02-09T16:19:35.541Z,49.47
2023-02-09T16:22:40.644Z,51.65
2023-02-09T16:28:44.367Z,56.50
2023-02-09T16:31:46.077Z,55.45
2023-02-09T16:34:48.783Z,51.78
2023-02-09T16:37:52.734Z,72.80
2023-02-09T16:40:55.744Z,52.08
2023-02-09T16:43:57.937Z,55.03
2023-02-09T16:47:02.412Z,62.45
2023-02-09T16:50:16.442Z,54.08
2023-02-09T16:53:22.756Z,52.00
2023-02-09T16:56:25.895Z,46.38
2023-02-09T16:59:27.606Z,47.78
